Time;durP1;ratioP1;P1;durP2;ratioP2;P2;SDS_P1;SDS_P2;PMS_P1;PMS_P2;Temp;Humidity;BMP_temperature;BMP_pressure;BME280_temperature;BME280_humidity;BME280_pressure;Samples;Min_cycle;Max_cycle;Signal;HPM_P1;HPM_P2
2023/05/31 00:02:24;;;;;;;1.70;1.70;;;21.70;63.00;;;;;;5099084;27;43360;-69
2023/05/31 00:04:52;;;;;;;1.50;1.50;;;21.70;62.80;;;;;;5104682;27;43446;-69
2023/05/31 00:07:21;;;;;;;1.37;1.37;;;21.70;63.30;;;;;;5096033;28;43502;-69
2023/05/31 00:09:49;;;;;;;1.47;1.47;;;21.70;63.30;;;;;;5099115;27;43961;-70
2023/05/31 00:12:17;;;;;;;1.40;1.40;;;21.80;63.10;;;;;;5103583;27;43343;-69
2023/05/31 00:14:46;;;;;;;1.70;1.60;;;22.00;62.90;;;;;;5102019;27;43913;-69
2023/05/31 00:17:14;;;;;;;1.57;1.57;;;22.00;62.50;;;;;;5104732;27;43393;-69
2023/05/31 00:20:02;;;;;;;1.80;1.70;;;22.10;62.60;;;;;;5103415;27;46241;-69
2023/05/31 00:22:32;;;;;;;1.33;1.33;;;22.00;62.60;;;;;;5098532;27;43995;-69
2023/05/31 00:25:02;;;;;;;1.40;1.40;;;22.00;62.50;;;;;;5107137;27;43441;-71
2023/05/31 00:27:30;;;;;;;1.50;1.50;;;21.90;62.90;;;;;;5104933;27;43449;-73
2023/05/31 00:29:58;;;;;;;1.40;1.40;;;21.90;63.10;;;;;;5103801;28;44200;-69
2023/05/31 00:32:26;;;;;;;1.30;1.30;;;21.90;63.20;;;;;;5109237;27;43503;-70
2023/05/31 00:34:54;;;;;;;1.40;1.40;;;21.80;63.00;;;;;;5118018;27;43489;-69
2023/05/31 00:37:22;;;;;;;1.40;1.40;;;21.80;62.80;;;;;;5100335;28;43421;-69
2023/05/31 00:39:51;;;;;;;1.40;1.40;;;21.80;63.40;;;;;;5104981;27;43817;-73
2023/05/31 00:42:19;;;;;;;1.40;1.40;;;21.80;63.40;;;;;;5102931;28;45136;-69
2023/05/31 00:44:47;;;;;;;1.30;1.30;;;21.80;63.50;;;;;;5104993;27;43464;-69
2023/05/31 00:47:18;;;;;;;1.40;1.40;;;21.70;63.20;;;;;;5104247;28;43503;-69
2023/05/31 00:49:46;;;;;;;1.20;1.20;;;21.70;63.10;;;;;;5108613;27;45456;-69
2023/05/31 00:52:14;;;;;;;1.57;1.57;;;21.70;63.60;;;;;;5102765;28;44627;-69
2023/05/31 00:54:42;;;;;;;1.33;1.33;;;21.70;63.50;;;;;;5104535;27;43340;-69
2023/05/31 00:57:12;;;;;;;1.40;1.40;;;21.90;63.30;;;;;;5104553;28;43519;-69
2023/05/31 00:59:40;;;;;;;1.57;1.57;;;21.90;62.90;;;;;;5102115;28;45741;-69
2023/05/31 01:02:08;;;;;;;1.60;1.60;;;22.00;62.70;;;;;;5102708;27;44403;-70
2023/05/31 01:04:36;;;;;;;1.40;1.40;;;22.00;63.40;;;;;;5103025;27;43370;-70
2023/05/31 01:07:04;;;;;;;1.37;1.37;;;22.00;62.80;;;;;;5103801;28;43423;-71
2023/05/31 01:09:34;;;;;;;1.50;1.40;;;22.00;62.80;;;;;;5103950;27;43835;-69
2023/05/31 01:12:08;;;;;;;1.37;1.37;;;21.90;62.70;;;;;;5103137;28;44736;-69
2023/05/31 01:14:43;;;;;;;1.60;1.60;;;21.80;63.30;;;;;;5104055;27;43766;-69
2023/05/31 01:17:20;;;;;;;1.30;1.30;;;21.80;63.30;;;;;;5103296;27;43422;-70
2023/05/31 01:19:51;;;;;;;1.30;1.30;;;21.80;63.40;;;;;;5101326;28;45583;-69
2023/05/31 01:22:35;;;;;;;1.43;1.43;;;21.80;63.10;;;;;;5099616;27;43433;-69
2023/05/31 01:25:14;;;;;;;1.40;1.40;;;21.70;63.50;;;;;;5102868;28;43401;-70
2023/05/31 01:27:44;;;;;;;1.30;1.30;;;21.70;63.50;;;;;;5097834;28;43526;-70
2023/05/31 01:30:12;;;;;;;1.27;1.27;;;21.70;63.60;;;;;;5101999;28;45939;-69
2023/05/31 01:32:40;;;;;;;1.23;1.23;;;21.70;63.40;;;;;;5102226;28;44791;-69
2023/05/31 01:35:10;;;;;;;1.33;1.33;;;21.70;63.30;;;;;;5103472;28;43443;-69
2023/05/31 01:37:37;;;;;;;1.30;1.30;;;21.70;63.80;;;;;;5104455;27;43426;-69
2023/05/31 01:40:07;;;;;;;1.37;1.37;;;21.70;63.70;;;;;;5102620;28;45678;-70
2023/05/31 01:42:35;;;;;;;1.13;1.13;;;21.80;63.50;;;;;;5103083;28;43462;-69
2023/05/31 01:45:05;;;;;;;1.33;1.33;;;22.00;63.20;;;;;;5104038;27;43429;-70
2023/05/31 01:47:33;;;;;;;1.30;1.30;;;22.00;62.90;;;;;;5101897;28;43520;-69
2023/05/31 01:50:01;;;;;;;1.27;1.27;;;22.00;62.80;;;;;;5103235;27;43669;-70
2023/05/31 01:52:30;;;;;;;1.37;1.37;;;22.00;62.90;;;;;;5097839;28;44747;-70
2023/05/31 01:54:59;;;;;;;1.50;1.50;;;22.00;63.10;;;;;;5099312;28;43978;-69
2023/05/31 01:57:30;;;;;;;1.47;1.47;;;21.90;63.20;;;;;;5102417;28;43726;-70
2023/05/31 01:59:59;;;;;;;1.20;1.20;;;21.90;63.50;;;;;;5098956;28;44096;-69
2023/05/31 02:02:28;;;;;;;1.10;1.10;;;21.80;63.30;;;;;;5101468;28;45001;-69
2023/05/31 02:05:08;;;;;;;1.40;1.40;;;21.80;63.40;;;;;;5103625;27;43433;-69
2023/05/31 02:07:37;;;;;;;1.40;1.40;;;21.80;63.30;;;;;;5102645;28;43411;-69
2023/05/31 02:10:06;;;;;;;1.30;1.30;;;21.70;63.60;;;;;;5102363;27;45645;-69
2023/05/31 02:12:36;;;;;;;1.30;1.30;;;21.70;63.70;;;;;;5101663;28;44982;-68
2023/05/31 02:15:10;;;;;;;1.33;1.17;;;21.70;63.80;;;;;;5102236;28;43454;-69
2023/05/31 02:17:42;;;;;;;1.40;1.40;;;21.70;63.60;;;;;;5110781;27;43465;-68
2023/05/31 02:20:12;;;;;;;1.47;1.37;;;21.70;63.50;;;;;;5104961;27;43824;-68
2023/05/31 02:22:41;;;;;;;1.20;1.20;;;21.70;63.90;;;;;;5101057;28;44941;-68
2023/05/31 02:25:10;;;;;;;1.47;1.37;;;21.70;63.80;;;;;;5102045;28;43850;-68
2023/05/31 02:27:40;;;;;;;1.40;1.40;;;21.80;63.60;;;;;;5095717;28;43573;-68
2023/05/31 02:30:09;;;;;;;1.20;1.20;;;22.00;63.30;;;;;;5101275;28;45363;-69
2023/05/31 02:32:37;;;;;;;1.30;1.30;;;22.00;63.00;;;;;;5101699;27;44641;-70
2023/05/31 02:35:08;;;;;;;1.30;1.30;;;22.00;62.90;;;;;;5106796;27;43416;-69
2023/05/31 02:37:37;;;;;;;1.20;1.20;;;22.00;63.00;;;;;;5105736;27;43498;-69
2023/05/31 02:40:08;;;;;;;1.40;1.40;;;22.00;63.10;;;;;;5104780;28;46846;-69
2023/05/31 02:42:37;;;;;;;1.30;1.30;;;21.90;63.50;;;;;;5105567;28;44691;-70
2023/05/31 02:45:06;;;;;;;1.40;1.40;;;21.90;63.70;;;;;;5105604;28;43469;-71
2023/05/31 02:47:36;;;;;;;1.40;1.40;;;21.80;63.70;;;;;;5102507;28;43868;-70
2023/05/31 02:50:05;;;;;;;1.33;1.33;;;21.80;63.60;;;;;;5105568;28;45615;-71
2023/05/31 02:52:34;;;;;;;1.30;1.30;;;21.80;63.30;;;;;;5099728;28;43491;-69
2023/05/31 02:55:13;;;;;;;1.40;1.40;;;21.70;63.80;;;;;;5104822;28;43426;-70
2023/05/31 02:58:01;;;;;;;1.27;1.27;;;21.70;63.80;;;;;;5105238;27;43704;-73
2023/05/31 03:00:32;;;;;;;1.30;1.30;;;21.70;63.80;;;;;;5105041;28;44074;-70
2023/05/31 03:03:00;;;;;;;1.33;1.33;;;21.70;63.60;;;;;;5104774;28;44969;-70
2023/05/31 03:05:59;;;;;;;1.63;1.63;;;21.60;63.90;;;;;;5107477;27;43462;-70
2023/05/31 03:08:29;;;;;;;1.10;1.10;;;21.70;64.10;;;;;;5124944;27;43610;-69
2023/05/31 03:10:57;;;;;;;1.43;1.40;;;21.60;64.00;;;;;;5104940;28;46008;-69
2023/05/31 03:13:25;;;;;;;1.23;1.23;;;21.60;63.70;;;;;;5104732;28;44952;-69
2023/05/31 03:15:54;;;;;;;1.40;1.40;;;21.60;63.70;;;;;;5105565;27;43564;-69
2023/05/31 03:18:22;;;;;;;1.27;1.27;;;21.60;64.10;;;;;;5104151;28;43581;-69
2023/05/31 03:20:55;;;;;;;1.40;1.40;;;21.70;64.00;;;;;;5104677;28;43907;-69
2023/05/31 03:23:25;;;;;;;1.30;1.30;;;21.80;63.90;;;;;;5098195;28;44764;-70
2023/05/31 03:25:54;;;;;;;1.40;1.40;;;21.90;63.50;;;;;;5102884;28;43466;-69
2023/05/31 03:28:23;;;;;;;1.33;1.33;;;22.00;63.20;;;;;;5103443;28;43542;-69
2023/05/31 03:30:51;;;;;;;1.13;1.13;;;22.00;63.10;;;;;;5104558;27;43855;-69
2023/05/31 03:33:19;;;;;;;1.30;1.30;;;22.00;63.30;;;;;;5105162;27;44717;-69
2023/05/31 03:35:55;;;;;;;1.27;1.27;;;21.90;63.20;;;;;;5103075;28;44538;-70
2023/05/31 03:38:23;;;;;;;1.40;1.40;;;21.90;63.70;;;;;;5104496;28;43478;-69
2023/05/31 03:40:51;;;;;;;1.40;1.40;;;21.80;63.70;;;;;;5105250;27;43586;-69
2023/05/31 03:43:20;;;;;;;1.37;1.37;;;21.80;63.80;;;;;;5105528;27;43446;-69
2023/05/31 03:45:49;;;;;;;1.30;1.30;;;21.80;63.60;;;;;;5104093;27;43440;-69
2023/05/31 03:48:17;;;;;;;1.40;1.30;;;21.70;63.50;;;;;;5093385;28;43535;-69
2023/05/31 03:50:46;;;;;;;1.40;1.40;;;21.70;63.90;;;;;;5103553;27;45786;-69
2023/05/31 03:53:14;;;;;;;1.30;1.30;;;21.80;64.00;;;;;;5104083;27;43379;-70
2023/05/31 03:55:42;;;;;;;1.30;1.30;;;21.90;63.90;;;;;;5100431;28;44002;-69
2023/05/31 03:58:10;;;;;;;1.20;1.20;;;21.90;63.80;;;;;;5104817;27;43456;-69
2023/05/31 04:00:42;;;;;;;1.40;1.40;;;21.90;63.80;;;;;;5103029;27;43816;-70
2023/05/31 04:03:11;;;;;;;1.40;1.40;;;21.90;63.80;;;;;;5103284;28;43435;-68
2023/05/31 04:05:41;;;;;;;1.20;1.20;;;21.90;63.90;;;;;;5103328;28;43957;-70
2023/05/31 04:08:10;;;;;;;1.33;1.33;;;21.90;63.90;;;;;;5102515;28;43526;-69
2023/05/31 04:10:38;;;;;;;1.43;1.43;;;21.80;63.70;;;;;;5104988;27;43599;-69
2023/05/31 04:13:07;;;;;;;1.30;1.30;;;21.80;63.30;;;;;;5098240;27;43347;-69
2023/05/31 04:15:35;;;;;;;1.40;1.40;;;21.80;64.00;;;;;;5103374;27;43999;-69
2023/05/31 04:18:06;;;;;;;1.30;1.30;;;21.70;63.80;;;;;;5099165;27;43486;-69
2023/05/31 04:20:34;;;;;;;1.43;1.43;;;21.70;64.00;;;;;;5104171;27;45511;-70
2023/05/31 04:23:02;;;;;;;2.17;1.97;;;21.70;63.60;;;;;;5103360;28;44697;-70
2023/05/31 04:25:30;;;;;;;10.87;3.87;;;21.70;63.40;;;;;;5102954;28;43482;-69
2023/05/31 04:27:59;;;;;;;24.90;6.80;;;21.70;63.80;;;;;;5103435;28;43446;-69
2023/05/31 04:30:28;;;;;;;24.67;6.97;;;21.70;63.70;;;;;;5103225;27;45671;-70
2023/05/31 04:32:57;;;;;;;27.50;8.43;;;21.80;63.60;;;;;;5104067;28;44814;-70
2023/05/31 04:35:28;;;;;;;33.93;10.03;;;22.00;63.30;;;;;;5090188;28;43439;-69
2023/05/31 04:37:59;;;;;;;21.90;7.80;;;22.00;63.10;;;;;;5104831;28;43352;-69
2023/05/31 04:40:31;;;;;;;24.57;9.23;;;22.00;63.10;;;;;;5104272;28;43901;-69
2023/05/31 04:43:02;;;;;;;23.47;8.53;;;22.00;63.10;;;;;;5104033;28;44996;-69
2023/05/31 04:45:32;;;;;;;23.00;9.30;;;22.00;63.00;;;;;;5103532;27;43382;-71
2023/05/31 04:48:01;;;;;;;27.03;9.27;;;21.90;63.50;;;;;;5104077;28;43446;-73
2023/05/31 04:50:31;;;;;;;26.40;9.27;;;21.90;63.60;;;;;;5103833;28;44921;-69
2023/05/31 04:53:00;;;;;;;25.73;8.90;;;21.80;63.70;;;;;;5104193;28;44856;-69
2023/05/31 04:55:29;;;;;;;19.17;8.60;;;21.80;63.50;;;;;;5104738;27;43477;-69
2023/05/31 04:58:02;;;;;;;20.73;8.80;;;21.80;63.30;;;;;;5104003;28;43464;-71
2023/05/31 05:00:32;;;;;;;20.47;8.70;;;21.70;63.80;;;;;;5103534;28;44721;-69
2023/05/31 05:03:10;;;;;;;16.47;8.27;;;21.70;64.00;;;;;;5102379;28;43366;-69
2023/05/31 05:05:40;;;;;;;17.47;7.73;;;21.70;64.00;;;;;;5103870;28;43366;-72
2023/05/31 05:08:09;;;;;;;21.03;8.27;;;21.70;63.70;;;;;;5113075;27;43367;-69
2023/05/31 05:10:39;;;;;;;17.57;8.40;;;21.70;63.60;;;;;;5090004;28;44046;-69
2023/05/31 05:13:07;;;;;;;18.77;8.03;;;21.70;64.20;;;;;;5103387;28;44091;-70
2023/05/31 05:15:38;;;;;;;21.90;8.53;;;21.70;64.20;;;;;;5103246;28;43489;-70
2023/05/31 05:18:06;;;;;;;15.53;7.47;;;21.70;64.20;;;;;;5103759;28;43529;-69
2023/05/31 05:20:36;;;;;;;17.50;7.47;;;21.70;63.90;;;;;;5103338;27;44056;-69
2023/05/31 05:23:06;;;;;;;19.03;7.73;;;21.70;63.80;;;;;;5103366;27;43449;-69
2023/05/31 05:25:36;;;;;;;15.23;7.53;;;21.60;64.20;;;;;;5103244;27;43411;-69
2023/05/31 05:28:04;;;;;;;15.67;7.20;;;21.70;64.40;;;;;;5104089;28;43863;-69
2023/05/31 05:30:32;;;;;;;15.77;7.97;;;21.80;64.30;;;;;;5103275;28;44935;-70
2023/05/31 05:33:00;;;;;;;14.33;7.87;;;21.90;63.90;;;;;;5102893;28;45132;-73
2023/05/31 05:35:29;;;;;;;15.40;7.33;;;22.00;63.50;;;;;;5102701;28;43438;-72
2023/05/31 05:37:59;;;;;;;14.50;7.33;;;22.00;63.50;;;;;;5104088;28;43532;-69
2023/05/31 05:40:29;;;;;;;12.70;7.07;;;22.00;63.30;;;;;;5103389;28;45934;-70
2023/05/31 05:42:57;;;;;;;14.37;7.43;;;22.00;63.40;;;;;;5106000;27;44614;-69
2023/05/31 05:45:29;;;;;;;11.77;6.73;;;22.00;63.50;;;;;;5103184;27;43489;-69
2023/05/31 05:47:57;;;;;;;10.77;6.47;;;21.90;63.80;;;;;;5103858;27;43410;-69
2023/05/31 05:50:26;;;;;;;14.20;7.07;;;21.90;64.00;;;;;;5095250;28;45664;-71
2023/05/31 05:52:55;;;;;;;11.03;6.43;;;21.80;63.90;;;;;;5103133;28;43417;-69
2023/05/31 05:55:23;;;;;;;12.00;6.40;;;21.80;63.60;;;;;;5103685;28;43435;-69
2023/05/31 05:57:53;;;;;;;11.83;6.63;;;21.70;64.00;;;;;;5103210;28;43444;-69
2023/05/31 06:00:40;;;;;;;11.00;6.63;;;21.70;64.20;;;;;;5100103;28;43618;-69
2023/05/31 06:03:09;;;;;;;12.20;6.53;;;21.70;64.20;;;;;;5102577;28;44557;-69
2023/05/31 06:05:37;;;;;;;9.47;5.87;;;21.70;64.00;;;;;;5091548;28;43350;-69
2023/05/31 06:08:06;;;;;;;10.40;6.23;;;21.70;63.90;;;;;;5104126;28;43593;-70
2023/05/31 06:10:34;;;;;;;9.90;6.10;;;21.60;64.40;;;;;;5105574;27;45546;-69
2023/05/31 06:13:07;;;;;;;11.27;6.03;;;21.70;64.50;;;;;;5096186;28;43438;-69
2023/05/31 06:15:35;;;;;;;10.00;5.80;;;21.80;64.40;;;;;;5106508;28;43350;-69
2023/05/31 06:18:03;;;;;;;8.30;5.37;;;21.90;63.90;;;;;;5106919;27;43462;-70
2023/05/31 06:20:32;;;;;;;8.60;5.80;;;22.00;63.70;;;;;;5105960;28;45863;-70
2023/05/31 06:23:03;;;;;;;8.87;5.37;;;22.00;63.70;;;;;;5105636;28;44911;-72
2023/05/31 06:25:31;;;;;;;9.10;5.67;;;22.00;63.70;;;;;;5105374;28;43519;-72
2023/05/31 06:27:59;;;;;;;9.93;5.63;;;21.90;63.50;;;;;;5107985;28;43339;-69
2023/05/31 06:30:28;;;;;;;8.67;5.70;;;21.80;64.00;;;;;;5106194;28;45812;-69
2023/05/31 06:32:56;;;;;;;7.23;5.30;;;21.80;64.10;;;;;;5102699;28;44429;-69
2023/05/31 06:35:25;;;;;;;7.80;5.27;;;21.80;64.20;;;;;;5107304;27;43378;-70
2023/05/31 06:37:53;;;;;;;6.70;4.83;;;21.80;64.00;;;;;;5106169;28;43517;-69
2023/05/31 06:40:22;;;;;;;7.93;5.23;;;21.70;63.80;;;;;;5105644;27;44079;-69
2023/05/31 06:42:53;;;;;;;7.13;5.20;;;21.70;65.10;;;;;;5105692;28;44438;-69
2023/05/31 06:45:45;;;;;;;5.67;4.83;;;21.70;64.50;;;;;;5106412;27;44319;-68
2023/05/31 06:48:13;;;;;;;6.10;5.00;;;21.70;64.30;;;;;;5103359;27;43401;-68
2023/05/31 06:50:59;;;;;;;7.07;4.87;;;21.60;64.00;;;;;;5101133;28;43551;-68
2023/05/31 06:53:51;;;;;;;7.03;4.70;;;21.60;64.50;;;;;;5106863;28;43409;-68
2023/05/31 06:56:23;;;;;;;8.07;5.20;;;21.60;64.60;;;;;;5105413;28;43377;-68
2023/05/31 06:58:51;;;;;;;7.10;5.30;;;21.70;64.50;;;;;;5105996;28;43476;-68
2023/05/31 07:01:20;;;;;;;5.00;4.50;;;21.80;64.20;;;;;;5115066;27;43835;-68
2023/05/31 07:03:48;;;;;;;7.07;5.00;;;22.00;64.10;;;;;;5090475;28;44689;-69
2023/05/31 07:06:16;;;;;;;6.53;4.53;;;22.00;63.90;;;;;;5105179;28;43409;-69
2023/05/31 07:08:47;;;;;;;6.53;4.30;;;22.00;63.90;;;;;;5106905;27;43387;-69
2023/05/31 07:11:24;;;;;;;5.40;4.67;;;21.90;63.60;;;;;;5103011;27;43535;-68
2023/05/31 07:13:59;;;;;;;4.97;4.47;;;21.80;63.70;;;;;;5088141;27;44109;-68
2023/05/31 07:16:31;;;;;;;6.37;4.53;;;21.80;64.30;;;;;;5102687;28;43442;-68
2023/05/31 07:19:00;;;;;;;5.00;3.93;;;21.80;64.40;;;;;;5105221;27;43379;-67
2023/05/31 07:21:29;;;;;;;4.73;3.87;;;21.70;64.20;;;;;;5105431;28;43812;-69
2023/05/31 07:23:57;;;;;;;4.50;4.10;;;21.70;64.00;;;;;;5106687;27;43455;-68
2023/05/31 07:26:26;;;;;;;4.33;4.00;;;21.70;64.50;;;;;;5106393;27;43430;-68
2023/05/31 07:28:56;;;;;;;4.87;4.37;;;21.60;64.60;;;;;;5090879;28;43455;-69
2023/05/31 07:31:24;;;;;;;5.60;4.37;;;21.60;64.60;;;;;;5102715;28;43983;-68
2023/05/31 07:33:53;;;;;;;5.63;4.47;;;21.60;64.30;;;;;;5106028;27;43422;-69
2023/05/31 07:36:24;;;;;;;4.17;3.77;;;21.60;64.20;;;;;;5087022;27;43561;-69
2023/05/31 07:38:52;;;;;;;4.20;3.80;;;21.60;64.80;;;;;;5092539;28;43413;-68
2023/05/31 07:41:20;;;;;;;4.43;4.00;;;21.60;64.90;;;;;;5104776;27;43717;-69
2023/05/31 07:43:50;;;;;;;4.53;4.13;;;21.70;64.70;;;;;;5105764;28;43363;-68
2023/05/31 07:46:18;;;;;;;4.57;4.17;;;21.80;64.50;;;;;;5103140;27;43388;-69
2023/05/31 07:48:46;;;;;;;4.27;3.87;;;21.90;64.20;;;;;;5101093;28;43484;-69
2023/05/31 07:51:15;;;;;;;4.37;3.73;;;22.00;64.20;;;;;;5102575;28;46030;-69
2023/05/31 07:53:43;;;;;;;4.33;3.90;;;21.90;64.00;;;;;;5123700;27;44683;-69
2023/05/31 07:56:11;;;;;;;4.03;3.73;;;21.90;63.90;;;;;;5108123;27;43443;-69
2023/05/31 07:58:39;;;;;;;3.70;3.40;;;21.80;63.90;;;;;;5106674;27;43279;-69
2023/05/31 08:01:07;;;;;;;4.33;3.93;;;21.70;64.50;;;;;;5105639;27;43615;-68
2023/05/31 08:03:35;;;;;;;4.20;3.90;;;21.80;64.60;;;;;;5105084;28;43450;-68
2023/05/31 08:06:04;;;;;;;3.57;3.37;;;21.70;64.30;;;;;;5104384;28;43442;-69
2023/05/31 08:08:33;;;;;;;4.20;3.80;;;21.70;64.10;;;;;;5105199;27;43383;-69
2023/05/31 08:11:01;;;;;;;4.00;3.40;;;21.60;64.30;;;;;;5099522;28;45925;-71
2023/05/31 08:13:30;;;;;;;3.97;3.57;;;21.60;64.80;;;;;;5098653;27;43485;-71
2023/05/31 08:15:58;;;;;;;3.43;3.23;;;21.60;64.80;;;;;;5099760;28;43347;-68
2023/05/31 08:18:26;;;;;;;3.77;3.57;;;21.60;64.50;;;;;;5105286;28;43429;-68
2023/05/31 08:20:54;;;;;;;3.83;3.53;;;21.60;64.50;;;;;;5100697;27;45318;-70
2023/05/31 08:23:22;;;;;;;3.70;3.43;;;21.50;64.80;;;;;;5103073;27;43393;-70
2023/05/31 08:25:55;;;;;;;3.63;3.43;;;21.60;65.00;;;;;;5103497;27;43403;-68
2023/05/31 08:28:24;;;;;;;3.60;3.40;;;21.70;65.00;;;;;;5098391;28;43490;-70
2023/05/31 08:30:52;;;;;;;3.33;3.20;;;21.80;64.70;;;;;;5100042;28;45990;-70
2023/05/31 08:33:22;;;;;;;3.90;3.60;;;21.90;64.40;;;;;;5104538;27;43380;-69
2023/05/31 08:35:50;;;;;;;3.47;3.17;;;21.90;64.20;;;;;;5105196;28;43359;-69
2023/05/31 08:38:18;;;;;;;3.20;3.00;;;21.90;64.10;;;;;;5100593;28;43425;-69
2023/05/31 08:40:46;;;;;;;3.50;3.27;;;21.90;63.90;;;;;;5100363;27;43603;-69
2023/05/31 08:43:16;;;;;;;4.40;3.57;;;21.80;64.00;;;;;;5104099;27;44595;-69
2023/05/31 08:45:44;;;;;;;2.87;2.77;;;21.70;64.70;;;;;;5108814;27;43438;-69
2023/05/31 08:48:15;;;;;;;3.80;3.40;;;21.70;64.80;;;;;;5106731;27;43907;-70
2023/05/31 08:50:43;;;;;;;3.60;3.30;;;21.70;64.60;;;;;;5100424;28;43606;-69
2023/05/31 08:53:15;;;;;;;3.37;3.10;;;21.60;64.30;;;;;;5102206;27;43416;-70
2023/05/31 08:55:48;;;;;;;3.00;2.80;;;21.60;64.40;;;;;;5103829;27;43415;-72
2023/05/31 08:58:17;;;;;;;3.30;3.10;;;21.60;65.10;;;;;;5096833;27;43449;-69
2023/05/31 09:00:46;;;;;;;3.33;2.80;;;21.60;65.80;;;;;;5097127;27;43614;-69
2023/05/31 09:03:14;;;;;;;2.90;2.80;;;21.60;64.80;;;;;;5097058;28;44690;-70
2023/05/31 09:05:44;;;;;;;2.97;2.80;;;21.60;64.60;;;;;;5104122;27;43383;-69
2023/05/31 09:08:13;;;;;;;2.77;2.67;;;21.50;64.60;;;;;;5100724;28;43304;-70
2023/05/31 09:10:41;;;;;;;2.90;2.80;;;21.50;65.20;;;;;;5114329;27;45859;-69
2023/05/31 09:13:09;;;;;;;3.10;3.00;;;21.50;65.20;;;;;;5102491;27;44883;-69
2023/05/31 09:15:39;;;;;;;3.00;2.80;;;21.50;64.80;;;;;;5103892;27;43415;-69
2023/05/31 09:18:14;;;;;;;2.80;2.60;;;21.50;64.70;;;;;;5102526;28;43530;-70
2023/05/31 09:20:42;;;;;;;3.00;2.80;;;21.50;64.90;;;;;;5103725;28;43707;-69
2023/05/31 09:23:29;;;;;;;2.73;2.63;;;21.50;66.10;;;;;;5102176;28;44713;-70
2023/05/31 09:29:25;;;;;;;2.97;2.77;;;21.70;65.00;;;;;;5102256;28;43452;-69
2023/05/31 09:32:08;;;;;;;2.97;2.60;;;21.90;64.60;;;;;;5101884;28;45791;-69
2023/05/31 09:34:36;;;;;;;2.50;2.40;;;21.90;64.50;;;;;;5104277;27;43397;-69
2023/05/31 09:37:05;;;;;;;2.90;2.70;;;21.90;64.20;;;;;;5103187;28;43395;-69
2023/05/31 09:39:33;;;;;;;2.70;2.60;;;21.80;64.10;;;;;;5104509;27;43410;-69
2023/05/31 09:42:01;;;;;;;2.57;2.47;;;21.80;64.30;;;;;;5102348;27;45391;-73
2023/05/31 09:44:30;;;;;;;2.57;2.47;;;21.70;64.90;;;;;;5107452;27;43339;-69
2023/05/31 09:47:09;;;;;;;2.77;2.67;;;21.70;64.80;;;;;;5107655;27;43513;-70
2023/05/31 09:49:37;;;;;;;2.60;2.50;;;21.70;64.50;;;;;;5104115;27;43457;-69
2023/05/31 09:52:06;;;;;;;2.90;2.70;;;21.60;64.60;;;;;;5107409;27;43874;-69
2023/05/31 09:54:35;;;;;;;2.50;2.40;;;21.60;65.10;;;;;;5106954;27;43779;-69
2023/05/31 09:57:04;;;;;;;2.47;2.37;;;21.60;65.30;;;;;;5105616;27;43434;-69
2023/05/31 09:59:33;;;;;;;2.70;2.50;;;21.70;65.20;;;;;;5106568;28;43359;-71
2023/05/31 10:02:01;;;;;;;2.50;2.40;;;21.80;65.80;;;;;;5105791;28;45671;-73
2023/05/31 10:04:30;;;;;;;2.63;2.53;;;21.80;64.60;;;;;;5107201;27;43422;-69
2023/05/31 10:06:58;;;;;;;2.67;2.57;;;21.70;64.50;;;;;;5107152;27;43500;-69
2023/05/31 10:09:26;;;;;;;2.50;2.40;;;21.70;65.10;;;;;;5107667;27;43390;-69
2023/05/31 10:11:54;;;;;;;2.50;2.40;;;21.70;65.10;;;;;;5105507;27;45648;-69
2023/05/31 10:14:27;;;;;;;2.60;2.50;;;21.70;64.70;;;;;;5106956;27;43572;-69
2023/05/31 10:16:56;;;;;;;2.40;2.30;;;21.70;63.70;;;;;;5105138;27;43433;-69
2023/05/31 10:19:25;;;;;;;2.40;2.30;;;21.60;64.20;;;;;;5105993;28;43616;-70
2023/05/31 10:21:55;;;;;;;2.30;2.20;;;21.60;64.80;;;;;;5106506;27;43598;-69
2023/05/31 10:24:26;;;;;;;2.53;2.37;;;21.60;64.20;;;;;;5098412;28;43447;-69
2023/05/31 10:27:00;;;;;;;1.93;1.93;;;21.60;64.10;;;;;;5105157;28;43423;-66
2023/05/31 10:29:30;;;;;;;2.90;2.77;;;21.60;64.50;;;;;;5103978;28;43371;-71
2023/05/31 10:32:01;;;;;;;2.50;2.30;;;21.60;64.60;;;;;;5105348;28;45407;-69
2023/05/31 10:34:29;;;;;;;2.43;2.30;;;21.60;65.20;;;;;;5092344;28;43326;-69
2023/05/31 10:37:00;;;;;;;2.23;2.13;;;21.60;64.90;;;;;;5104271;28;43477;-71
2023/05/31 10:39:31;;;;;;;2.20;2.10;;;21.70;64.30;;;;;;5101936;28;43445;-70
2023/05/31 10:42:04;;;;;;;2.10;2.10;;;21.90;64.50;;;;;;5104758;27;45417;-69
2023/05/31 10:44:37;;;;;;;2.30;2.20;;;21.90;63.80;;;;;;5105531;27;44635;-69
2023/05/31 10:47:07;;;;;;;2.10;2.00;;;21.90;63.40;;;;;;5112211;27;43381;-68
2023/05/31 10:49:36;;;;;;;2.30;2.20;;;21.80;63.30;;;;;;5104999;28;43494;-68
2023/05/31 10:52:06;;;;;;;2.20;2.10;;;21.80;63.70;;;;;;5106457;27;43717;-70
2023/05/31 10:54:34;;;;;;;2.37;2.27;;;21.70;64.40;;;;;;5104334;27;45041;-70
2023/05/31 10:57:05;;;;;;;2.10;2.10;;;21.70;64.20;;;;;;5104549;28;43457;-69
2023/05/31 10:59:40;;;;;;;2.13;2.10;;;21.70;63.60;;;;;;5106537;27;43443;-71
2023/05/31 11:02:10;;;;;;;2.43;1.93;;;21.70;63.50;;;;;;5093065;28;45789;-69
2023/05/31 11:04:38;;;;;;;2.20;2.10;;;21.60;63.80;;;;;;5104826;28;44883;-69
2023/05/31 11:07:16;;;;;;;2.23;2.13;;;21.60;64.40;;;;;;5104719;28;43510;-69
2023/05/31 11:09:59;;;;;;;2.10;2.00;;;21.70;64.60;;;;;;5101084;28;43384;-69
2023/05/31 11:12:33;;;;;;;1.93;1.90;;;21.80;63.80;;;;;;5105626;27;43911;-69
2023/05/31 11:15:01;;;;;;;3.87;2.30;;;21.80;63.20;;;;;;5105362;28;43815;-73
2023/05/31 11:17:29;;;;;;;2.00;1.90;;;21.70;63.10;;;;;;5104812;28;43466;-70
2023/05/31 11:19:58;;;;;;;2.33;2.13;;;21.70;63.70;;;;;;5106531;27;43685;-70
2023/05/31 11:22:28;;;;;;;2.30;2.10;;;21.70;63.00;;;;;;5102980;28;45677;-69
2023/05/31 11:24:57;;;;;;;2.43;2.00;;;21.70;63.10;;;;;;5106348;28;43394;-69
2023/05/31 11:27:35;;;;;;;2.30;2.10;;;21.70;62.40;;;;;;5097478;28;43392;-72
2023/05/31 11:30:04;;;;;;;2.27;2.17;;;21.70;63.20;;;;;;5106529;27;43356;-69
2023/05/31 11:32:54;;;;;;;2.40;2.20;;;21.60;63.80;;;;;;5096942;28;45063;-70
2023/05/31 11:35:23;;;;;;;2.33;2.23;;;21.60;63.40;;;;;;5095196;28;44757;-69
2023/05/31 11:38:02;;;;;;;2.20;2.10;;;21.60;63.00;;;;;;5096359;28;43517;-69
2023/05/31 11:40:31;;;;;;;2.23;2.10;;;21.60;63.10;;;;;;5098757;28;43493;-69
2023/05/31 11:43:07;;;;;;;2.33;2.23;;;21.60;63.40;;;;;;5100723;27;43935;-69
2023/05/31 11:45:44;;;;;;;2.50;2.30;;;21.60;63.80;;;;;;5096507;28;45365;-69
2023/05/31 11:48:31;;;;;;;2.40;2.20;;;21.70;63.70;;;;;;5098216;27;43430;-71
2023/05/31 11:51:04;;;;;;;2.63;2.43;;;21.80;63.80;;;;;;5097133;28;43456;-69
2023/05/31 11:53:33;;;;;;;2.10;2.00;;;21.80;63.60;;;;;;5096739;27;43855;-70
2023/05/31 11:56:01;;;;;;;2.20;2.10;;;21.80;62.40;;;;;;5098207;27;43428;-70
2023/05/31 11:58:30;;;;;;;2.33;2.23;;;21.70;63.50;;;;;;5098117;27;43428;-69
2023/05/31 12:00:59;;;;;;;2.70;2.50;;;21.70;63.30;;;;;;5097882;27;43503;-69
2023/05/31 12:03:28;;;;;;;2.40;2.30;;;21.70;63.00;;;;;;5098624;27;43876;-68
2023/05/31 12:05:58;;;;;;;2.40;2.30;;;21.70;62.10;;;;;;5095511;27;43427;-69
2023/05/31 12:08:31;;;;;;;2.57;2.47;;;21.70;62.40;;;;;;5096497;28;43402;-69
2023/05/31 12:11:05;;;;;;;2.50;2.30;;;21.70;63.60;;;;;;5097292;28;43442;-69
2023/05/31 12:13:33;;;;;;;2.27;2.17;;;21.70;63.40;;;;;;5096706;27;43720;-69
2023/05/31 12:16:03;;;;;;;2.40;2.30;;;21.70;62.60;;;;;;5097517;28;44772;-69
2023/05/31 12:18:31;;;;;;;2.40;2.30;;;21.60;62.90;;;;;;5105749;27;43438;-72
2023/05/31 12:21:04;;;;;;;2.43;2.33;;;21.60;63.30;;;;;;5106505;28;43433;-68
2023/05/31 12:23:32;;;;;;;2.60;2.33;;;21.60;63.70;;;;;;5104784;27;43630;-69
2023/05/31 12:26:01;;;;;;;2.27;2.17;;;21.70;63.70;;;;;;5104672;28;43435;-69
2023/05/31 12:28:33;;;;;;;2.63;2.50;;;21.80;63.60;;;;;;5105417;28;43435;-73
2023/05/31 12:31:01;;;;;;;2.57;2.37;;;21.90;63.40;;;;;;5105888;27;43902;-73
2023/05/31 12:33:30;;;;;;;2.50;2.30;;;21.90;62.90;;;;;;5105984;27;43767;-69
2023/05/31 12:35:58;;;;;;;2.33;2.23;;;21.90;62.90;;;;;;5104650;28;43513;-68
2023/05/31 12:38:30;;;;;;;2.03;1.93;;;21.90;62.50;;;;;;5104218;27;43402;-69
2023/05/31 12:40:58;;;;;;;2.27;2.17;;;21.80;62.70;;;;;;5090243;28;43438;-71
2023/05/31 12:43:26;;;;;;;2.20;2.10;;;21.80;63.60;;;;;;5104856;27;43684;-68
2023/05/31 12:45:58;;;;;;;2.60;2.40;;;21.80;63.60;;;;;;5104441;27;44022;-72
2023/05/31 12:48:26;;;;;;;2.10;2.10;;;21.70;63.20;;;;;;5104739;27;43449;-69
2023/05/31 12:50:54;;;;;;;2.20;2.10;;;21.70;63.20;;;;;;5105283;27;44257;-68
2023/05/31 12:53:26;;;;;;;2.03;1.93;;;21.70;63.60;;;;;;5103828;28;45401;-70
2023/05/31 12:55:54;;;;;;;1.90;1.90;;;21.70;64.00;;;;;;5102543;28;43834;-69
2023/05/31 12:58:22;;;;;;;2.00;1.90;;;21.70;63.80;;;;;;5093635;27;43500;-69
2023/05/31 13:00:51;;;;;;;2.00;1.93;;;21.70;63.70;;;;;;5103659;27;43435;-68
2023/05/31 13:03:20;;;;;;;2.33;2.23;;;21.70;63.60;;;;;;5102644;27;43692;-69
2023/05/31 13:05:48;;;;;;;3.20;1.97;;;21.60;63.30;;;;;;5103376;27;43476;-69